Time,TemperatureF,DewpointF,PressureIn,WindDirection,WindDirectionDegrees,WindSpeedMPH,WindSpeedGustMPH,Humidity,HourlyPrecipIn,Conditions,Clouds,dailyrainin,SoftwareType,DateUTC
2013-01-30 00:00:00,67.6,64.9,30.14,SE,140,0.0,1.0,91,0.00,CLR,,0.00,WeatherDisplay:10.37,2013-01-30 05:00:00,
2013-01-30 00:15:00,67.6,64.9,30.13,SE,140,0.0,1.0,91,0.00,CLR,,0.00,WeatherDisplay:10.37,2013-01-30 05:15:00,
2013-01-30 00:30:00,67.4,64.7,30.13,SE,140,0.0,0.0,91,0.00,CLR,,0.00,WeatherDisplay:10.37,2013-01-30 05:30:00,
2013-01-30 00:45:00,67.0,64.2,30.13,SE,140,0.0,0.0,91,0.00,CLR,,0.00,WeatherDisplay:10.37,2013-01-30 05:45:00,
2013-01-30 01:00:00,66.3,63.9,30.13,SE,140,0.0,0.0,92,0.00,CLR,,0.00,WeatherDisplay:10.37,2013-01-30 06:00:00,
2013-01-30 01:15:00,66.2,64.4,30.13,SE,140,0.0,0.0,94,0.00,CLR,,0.00,WeatherDisplay:10.37,2013-01-30 06:15:00,
2013-01-30 01:30:00,67.0,64.9,30.13,SE,140,0.0,1.0,93,0.00,CLR,,0.00,WeatherDisplay:10.37,2013-01-30 06:30:00,
2013-01-30 01:45:00,68.0,65.6,30.13,South,190,1.0,3.0,92,0.00,CLR,,0.00,WeatherDisplay:10.37,2013-01-30 06:45:00,
2013-01-30 02:00:00,69.0,65.9,30.12,South,179,1.0,9.0,90,0.00,CLR,,0.00,WeatherDisplay:10.37,2013-01-30 07:00:00,
2013-01-30 02:15:00,69.5,66.1,30.11,SSE,165,2.0,6.0,89,0.00,CLR,,0.00,WeatherDisplay:10.37,2013-01-30 07:15:00,
2013-01-30 02:30:00,69.5,66.1,30.10,SSE,164,1.0,8.0,89,0.00,CLR,,0.00,WeatherDisplay:10.37,2013-01-30 07:30:00,
2013-01-30 02:45:00,69.4,66.0,30.10,South,183,2.0,8.0,89,0.00,CLR,,0.00,WeatherDisplay:10.37,2013-01-30 07:45:00,
2013-01-30 03:00:00,69.3,65.9,30.10,South,172,1.0,8.0,89,0.00,CLR,,0.00,WeatherDisplay:10.37,2013-01-30 08:00:00,
2013-01-30 03:15:00,69.0,65.9,30.10,South,179,1.0,6.0,90,0.00,CLR,,0.00,WeatherDisplay:10.37,2013-01-30 08:15:00,
2013-01-30 03:30:00,68.7,66.0,30.10,SSW,202,2.0,4.0,91,0.00,CLR,,0.00,WeatherDisplay:10.37,2013-01-30 08:30:00,
2013-01-30 03:45:00,68.9,66.1,30.10,SSW,195,1.0,7.0,91,0.00,CLR,,0.00,WeatherDisplay:10.37,2013-01-30 08:45:00,
2013-01-30 04:00:00,68.7,66.0,30.09,SSW,194,3.0,7.0,91,0.00,CLR,,0.00,WeatherDisplay:10.37,2013-01-30 09:00:00,
2013-01-30 04:15:00,68.6,66.2,30.08,South,190,2.0,8.0,92,0.00,CLR,,0.00,WeatherDisplay:10.37,2013-01-30 09:15:00,
2013-01-30 04:30:00,68.4,66.0,30.08,South,179,2.0,9.0,92,0.00,CLR,,0.00,WeatherDisplay:10.37,2013-01-30 09:30:00,
2013-01-30 04:45:00,68.4,66.0,30.08,South,175,3.0,9.0,92,0.00,CLR,,0.00,WeatherDisplay:10.37,2013-01-30 09:45:00,
2013-01-30 05:00:00,68.2,65.8,30.07,South,178,2.0,7.0,92,0.00,CLR,,0.00,WeatherDisplay:10.37,2013-01-30 10:00:00,
2013-01-30 05:15:00,67.9,65.8,30.07,South,179,0.0,6.0,93,0.00,CLR,,0.00,WeatherDisplay:10.37,2013-01-30 10:15:00,
2013-01-30 05:30:00,67.6,65.8,30.07,South,174,2.0,6.0,94,0.00,CLR,,0.00,WeatherDisplay:10.37,2013-01-30 10:30:00,
2013-01-30 05:45:00,67.4,65.6,30.07,South,172,3.0,7.0,94,0.00,CLR,,0.00,WeatherDisplay:10.37,2013-01-30 10:45:00,
2013-01-30 06:00:00,67.2,65.4,30.07,South,174,3.0,6.0,94,0.00,CLR,,0.00,WeatherDisplay:10.37,2013-01-30 11:00:00,
2013-01-30 06:15:00,67.1,65.6,30.06,South,175,3.0,6.0,95,0.00,CLR,,0.00,WeatherDisplay:10.37,2013-01-30 11:15:00,
2013-01-30 06:30:00,67.0,65.5,30.06,South,180,5.0,7.0,95,0.00,CLR,,0.00,WeatherDisplay:10.37,2013-01-30 11:30:00,
2013-01-30 06:45:00,66.8,65.3,30.06,SSE,155,2.0,5.0,95,0.00,CLR,,0.00,WeatherDisplay:10.37,2013-01-30 11:45:00,
2013-01-30 07:00:00,66.7,65.2,30.06,South,180,2.0,7.0,95,0.00,CLR,,0.00,WeatherDisplay:10.37,2013-01-30 12:00:00,
2013-01-30 07:15:00,66.7,65.2,30.06,SSE,164,2.0,9.0,95,0.00,CLR,,0.00,WeatherDisplay:10.37,2013-01-30 12:15:00,
2013-01-30 07:30:00,66.6,65.4,30.05,SSE,159,3.0,9.0,96,0.00,CLR,,0.00,WeatherDisplay:10.37,2013-01-30 12:30:00,
2013-01-30 07:45:00,66.8,65.3,30.05,South,173,3.0,12.0,95,0.00,CLR,,0.00,WeatherDisplay:10.37,2013-01-30 12:45:00,
2013-01-30 08:00:00,67.0,65.5,30.05,South,180,3.0,12.0,95,0.00,CLR,,0.00,WeatherDisplay:10.37,2013-01-30 13:00:00,
2013-01-30 08:15:00,67.6,65.8,30.05,SSE,168,6.0,12.0,94,0.00,CLR,,0.00,WeatherDisplay:10.37,2013-01-30 13:15:00,
2013-01-30 08:30:00,68.5,66.4,30.04,SSE,166,5.0,15.0,93,0.00,CLR,,0.00,WeatherDisplay:10.37,2013-01-30 13:30:00,
2013-01-30 08:45:00,69.6,66.6,30.04,South,177,5.0,16.0,90,0.00,CLR,,0.00,WeatherDisplay:10.37,2013-01-30 13:45:00,
2013-01-30 09:00:00,70.8,66.4,30.03,South,178,8.0,14.0,86,0.00,CLR,,0.00,WeatherDisplay:10.37,2013-01-30 14:00:00,
2013-01-30 09:15:00,71.9,66.8,30.03,South,175,5.0,20.0,84,0.00,CLR,,0.00,WeatherDisplay:10.37,2013-01-30 14:15:00,
2013-01-30 09:30:00,72.2,66.0,30.03,South,173,14.0,20.0,81,0.00,CLR,,0.00,WeatherDisplay:10.37,2013-01-30 14:30:00,
2013-01-30 09:45:00,73.0,66.5,30.02,South,188,8.0,18.0,80,0.00,CLR,,0.00,WeatherDisplay:10.37,2013-01-30 14:45:00,
2013-01-30 10:00:00,73.5,66.6,30.03,SSW,199,8.0,15.0,79,0.00,CLR,,0.00,WeatherDisplay:10.37,2013-01-30 15:00:00,
2013-01-30 10:15:00,73.7,66.4,30.02,South,184,7.0,17.0,78,0.00,CLR,,0.00,WeatherDisplay:10.37,2013-01-30 15:15:00,
2013-01-30 10:30:00,74.9,66.4,30.01,South,176,10.0,17.0,75,0.00,CLR,,0.00,WeatherDisplay:10.37,2013-01-30 15:30:00,
2013-01-30 10:45:00,75.4,67.3,30.01,South,185,6.0,20.0,76,0.00,CLR,,0.00,WeatherDisplay:10.37,2013-01-30 15:45:00,
2013-01-30 11:00:00,76.1,66.4,30.00,South,187,8.0,24.0,72,0.00,CLR,,0.00,WeatherDisplay:10.37,2013-01-30 16:00:00,
2013-01-30 11:15:00,77.0,66.0,30.00,SSW,198,5.0,17.0,69,0.00,CLR,,0.00,WeatherDisplay:10.37,2013-01-30 16:15:00,
2013-01-30 11:30:00,77.7,65.8,30.01,SSW,203,9.0,20.0,67,0.00,CLR,,0.00,WeatherDisplay:10.37,2013-01-30 16:30:00,
2013-01-30 11:45:00,78.7,66.4,30.00,South,187,7.0,14.0,66,0.00,CLR,,0.00,WeatherDisplay:10.37,2013-01-30 16:45:00,
2013-01-30 12:00:00,79.0,66.2,29.98,South,189,3.0,17.0,65,0.00,CLR,,0.00,WeatherDisplay:10.37,2013-01-30 17:00:00,
2013-01-30 12:15:00,79.3,65.6,29.97,South,183,10.0,17.0,63,0.00,CLR,,0.00,WeatherDisplay:10.37,2013-01-30 17:15:00,
2013-01-30 12:30:00,80.1,66.9,29.96,South,188,5.0,14.0,64,0.00,CLR,,0.00,WeatherDisplay:10.37,2013-01-30 17:30:00,
2013-01-30 12:45:00,80.5,66.3,29.95,SSW,196,8.0,17.0,62,0.00,CLR,,0.00,WeatherDisplay:10.37,2013-01-30 17:45:00,
2013-01-30 13:00:00,80.7,66.5,29.94,SSW,201,8.0,16.0,62,0.00,CLR,,0.00,WeatherDisplay:10.37,2013-01-30 18:00:00,
2013-01-30 13:15:00,81.6,66.4,29.94,SSW,199,7.0,16.0,60,0.00,CLR,,0.00,WeatherDisplay:10.37,2013-01-30 18:15:00,
2013-01-30 13:30:00,82.2,67.0,29.94,SSW,198,5.0,15.0,60,0.00,CLR,,0.00,WeatherDisplay:10.37,2013-01-30 18:30:00,
2013-01-30 13:45:00,82.3,66.5,29.93,South,188,9.0,21.0,59,0.00,CLR,,0.00,WeatherDisplay:10.37,2013-01-30 18:45:00,
2013-01-30 14:00:00,81.7,66.5,29.92,SSW,193,6.0,14.0,60,0.00,CLR,,0.00,WeatherDisplay:10.37,2013-01-30 19:00:00,
2013-01-30 14:15:00,82.7,66.4,29.91,SSW,200,8.0,17.0,58,0.00,CLR,,0.00,WeatherDisplay:10.37,2013-01-30 19:15:00,
2013-01-30 14:30:00,82.8,66.5,29.91,South,181,7.0,18.0,58,0.00,CLR,,0.00,WeatherDisplay:10.37,2013-01-30 19:30:00,
2013-01-30 14:45:00,82.4,66.6,29.90,SSW,196,6.0,14.0,59,0.00,CLR,,0.00,WeatherDisplay:10.37,2013-01-30 19:45:00,
2013-01-30 15:00:00,82.8,66.0,29.90,SSW,210,7.0,18.0,57,0.00,CLR,,0.00,WeatherDisplay:10.37,2013-01-30 20:00:00,
2013-01-30 15:15:00,83.3,66.0,29.90,SSW,202,8.0,20.0,56,0.00,CLR,,0.00,WeatherDisplay:10.37,2013-01-30 20:15:00,
2013-01-30 15:30:00,82.6,65.9,29.89,South,191,10.0,17.0,57,0.00,CLR,,0.00,WeatherDisplay:10.37,2013-01-30 20:30:00,
2013-01-30 15:45:00,83.2,65.9,29.89,SSW,200,12.0,21.0,56,0.00,CLR,,0.00,WeatherDisplay:10.37,2013-01-30 20:45:00,
2013-01-30 16:00:00,83.2,65.4,29.87,South,190,9.0,24.0,55,0.00,CLR,,0.00,WeatherDisplay:10.37,2013-01-30 21:00:00,
2013-01-30 16:15:00,82.9,65.1,29.87,SSW,197,5.0,18.0,55,0.00,CLR,,0.00,WeatherDisplay:10.37,2013-01-30 21:15:00,
2013-01-30 16:30:00,82.1,65.4,29.87,SSW,195,7.0,15.0,57,0.00,CLR,,0.00,WeatherDisplay:10.37,2013-01-30 21:30:00,
2013-01-30 16:45:00,82.1,65.4,29.87,SSW,204,7.0,15.0,57,0.00,CLR,,0.00,WeatherDisplay:10.37,2013-01-30 21:45:00,
2013-01-30 17:00:00,82.0,65.3,29.87,SSW,192,7.0,14.0,57,0.00,CLR,,0.00,WeatherDisplay:10.37,2013-01-30 22:00:00,
2013-01-30 17:15:00,82.1,65.4,29.86,SSW,203,3.0,16.0,57,0.00,CLR,,0.00,WeatherDisplay:10.37,2013-01-30 22:15:00,
2013-01-30 17:30:00,81.8,64.6,29.86,SSW,201,3.0,21.0,56,0.00,CLR,,0.00,WeatherDisplay:10.37,2013-01-30 22:30:00,
2013-01-30 17:45:00,81.2,62.9,29.86,SSW,206,10.0,20.0,54,0.00,CLR,,0.00,WeatherDisplay:10.37,2013-01-30 22:45:00,
2013-01-30 18:00:00,80.6,62.9,29.86,SW,217,8.0,18.0,55,0.00,CLR,,0.00,WeatherDisplay:10.37,2013-01-30 23:00:00,
2013-01-30 18:15:00,79.8,63.2,29.86,SSW,197,5.0,13.0,57,0.00,CLR,,0.00,WeatherDisplay:10.37,2013-01-30 23:15:00,
2013-01-30 18:30:00,79.2,62.7,29.85,South,186,8.0,15.0,57,0.00,CLR,,0.00,WeatherDisplay:10.37,2013-01-30 23:30:00,
2013-01-30 18:45:00,78.9,62.9,29.85,SSW,197,5.0,15.0,58,0.00,CLR,,0.00,WeatherDisplay:10.37,2013-01-30 23:45:00,
2013-01-30 19:00:00,78.4,62.4,29.84,SSW,198,7.0,14.0,58,0.00,CLR,,0.00,WeatherDisplay:10.37,2013-01-31 00:00:00,
2013-01-30 19:15:00,77.9,62.4,29.84,SSW,193,3.0,14.0,59,0.00,CLR,,0.00,WeatherDisplay:10.37,2013-01-31 00:15:00,
2013-01-30 19:30:00,77.4,62.9,29.84,SSW,200,6.0,15.0,61,0.00,CLR,,0.00,WeatherDisplay:10.37,2013-01-31 00:30:00,
2013-01-30 19:45:00,76.9,63.3,29.85,SSW,194,6.0,15.0,63,0.00,CLR,,0.00,WeatherDisplay:10.37,2013-01-31 00:45:00,
2013-01-30 20:00:00,76.4,63.7,29.85,SSW,197,7.0,14.0,65,0.00,CLR,,0.00,WeatherDisplay:10.37,2013-01-31 01:00:00,
2013-01-30 20:15:00,75.8,64.1,29.86,SSW,201,7.0,13.0,67,0.00,CLR,,0.00,WeatherDisplay:10.37,2013-01-31 01:15:00,
2013-01-30 20:30:00,75.6,64.7,29.84,South,184,8.0,20.0,69,0.00,CLR,,0.00,WeatherDisplay:10.37,2013-01-31 01:30:00,
2013-01-30 20:45:00,75.5,65.0,29.85,SSW,201,6.0,16.0,70,0.00,CLR,,0.00,WeatherDisplay:10.37,2013-01-31 01:45:00,
2013-01-30 21:00:00,75.6,65.1,29.85,South,187,6.0,15.0,70,0.00,CLR,,0.00,WeatherDisplay:10.37,2013-01-31 02:00:00,
2013-01-30 21:15:00,75.2,65.6,29.85,SSW,201,3.0,22.0,72,0.00,CLR,,0.00,WeatherDisplay:10.37,2013-01-31 02:15:00,
2013-01-30 21:30:00,75.0,65.4,29.85,SSW,200,6.0,24.0,72,0.00,CLR,,0.00,WeatherDisplay:10.37,2013-01-31 02:30:00,
2013-01-30 21:45:00,74.8,65.2,29.86,SSW,204,10.0,18.0,72,0.00,CLR,,0.00,WeatherDisplay:10.37,2013-01-31 02:45:00,
2013-01-30 22:00:00,74.6,65.4,29.87,SSW,199,8.0,18.0,73,0.00,CLR,,0.00,WeatherDisplay:10.37,2013-01-31 03:00:00,
2013-01-30 22:15:00,74.5,65.7,29.87,SSW,195,6.0,14.0,74,0.00,CLR,,0.00,WeatherDisplay:10.37,2013-01-31 03:15:00,
2013-01-30 22:30:00,74.4,65.6,29.85,South,189,9.0,17.0,74,0.00,CLR,,0.00,WeatherDisplay:10.37,2013-01-31 03:30:00,
2013-01-30 22:45:00,74.3,65.8,29.85,South,181,6.0,17.0,75,0.00,CLR,,0.00,WeatherDisplay:10.37,2013-01-31 03:45:00,
2013-01-30 23:00:00,74.3,65.5,29.86,South,178,10.0,21.0,74,0.00,CLR,,0.00,WeatherDisplay:10.37,2013-01-31 04:00:00,
2013-01-30 23:15:00,74.2,65.4,29.86,SSW,201,6.0,17.0,74,0.00,CLR,,0.00,WeatherDisplay:10.37,2013-01-31 04:15:00,
2013-01-30 23:30:00,70.1,65.7,29.91,West,278,2.0,17.0,86,0.05,RA,,0.05,WeatherDisplay:10.37,2013-01-31 04:30:00,
2013-01-30 23:45:00,63.8,60.2,29.94,WNW,284,8.0,18.0,88,0.03,RA,,0.08,WeatherDisplay:10.37,2013-01-31 04:45:00,